Terminal Aerodrome Forecast
Issued by NWS Bismarck, ND

Home | Current Version | Previous Version | Graphics & Text | Print | Product List | Glossary On
Versions: 1 2 3 4 5 6 7 8 9 10 11 12 13
000
FTUS43 KBIS 310500
TAFISN
TAF
KISN 310536Z 3106/0106 VRB03KT P6SM BKN140
     FM311900 32009KT P6SM BKN150
     FM010200 28006KT P6SM SCT080=

USA.gov is the U.S. government's official web portal to all federal, state and local government web resources and services.